Time;durP1;ratioP1;P1;durP2;ratioP2;P2;SDS_P1;SDS_P2;PMS_P1;PMS_P2;Temp;Humidity;BMP_temperature;BMP_pressure;BME280_temperature;BME280_humidity;BME280_pressure;Samples;Min_cycle;Max_cycle;Signal;HPM_P1;HPM_P2
2021/03/28 00:00:23;;;;;;;17.75;10.65;;;11.20;99.90;;;;;;5030468;28;20048;-71
2021/03/28 00:03:53;;;;;;;19.70;10.57;;;11.30;99.90;;;;;;5027641;28;20063;-69
2021/03/28 00:07:02;;;;;;;16.38;10.02;;;11.20;99.90;;;;;;5027214;28;20060;-69
2021/03/28 00:10:22;;;;;;;18.35;11.07;;;11.20;99.90;;;;;;5029054;28;20045;-70
2021/03/28 00:13:28;;;;;;;19.85;11.07;;;11.10;99.90;;;;;;5031227;28;20396;-71
2021/03/28 00:16:47;;;;;;;17.83;11.32;;;11.00;99.90;;;;;;5030064;28;20057;-70
2021/03/28 00:20:16;;;;;;;20.90;11.35;;;11.00;99.90;;;;;;5030505;28;20049;-70
2021/03/28 00:23:26;;;;;;;20.38;11.95;;;10.90;99.90;;;;;;5029827;28;20060;-71
2021/03/28 00:26:32;;;;;;;17.35;10.95;;;10.90;99.90;;;;;;5030154;28;20036;-70
2021/03/28 00:30:22;;;;;;;20.52;10.75;;;10.90;99.90;;;;;;5031149;28;20403;-70
2021/03/28 00:33:27;;;;;;;18.90;11.35;;;10.80;99.90;;;;;;5030986;28;20836;-70
2021/03/28 00:36:56;;;;;;;14.45;10.48;;;10.70;99.90;;;;;;5029108;28;20040;-70
2021/03/28 00:40:10;;;;;;;22.85;11.20;;;10.70;99.90;;;;;;5024839;28;20036;-69
2021/03/28 00:43:18;;;;;;;17.83;11.52;;;10.70;99.90;;;;;;5024241;28;20041;-69
2021/03/28 00:47:00;;;;;;;26.35;12.07;;;10.60;99.90;;;;;;5030286;28;20064;-70
2021/03/28 00:50:10;;;;;;;23.45;13.95;;;10.30;99.90;;;;;;5022775;28;20048;-70
2021/03/28 00:53:35;;;;;;;22.95;13.07;;;10.10;99.90;;;;;;5019790;28;20052;-70
2021/03/28 00:56:47;;;;;;;26.40;15.38;;;10.00;99.90;;;;;;5029296;28;20388;-68
2021/03/28 01:00:35;;;;;;;21.40;14.27;;;9.90;99.90;;;;;;5029664;28;20056;-69
2021/03/28 01:03:59;;;;;;;21.20;13.10;;;9.90;99.90;;;;;;5029530;28;20053;-70
2021/03/28 01:07:16;;;;;;;24.83;14.00;;;10.00;99.90;;;;;;5029108;28;20279;-70
2021/03/28 01:10:46;;;;;;;23.35;13.45;;;10.00;99.90;;;;;;5030907;28;20507;-70
2021/03/28 01:14:16;;;;;;;24.58;12.32;;;10.00;99.90;;;;;;5030837;28;20053;-70
2021/03/28 01:17:41;;;;;;;18.08;11.93;;;10.00;99.90;;;;;;5033506;28;20040;-72
2021/03/28 01:21:20;;;;;;;21.63;12.60;;;10.00;99.90;;;;;;5034010;28;20756;-70
2021/03/28 01:24:46;;;;;;;22.60;12.00;;;10.00;99.90;;;;;;5034187;28;20040;-70
2021/03/28 01:27:56;;;;;;;24.33;14.15;;;10.10;99.90;;;;;;5034663;28;20376;-71
2021/03/28 01:31:13;;;;;;;30.63;15.73;;;9.70;99.90;;;;;;5033826;28;20048;-71
2021/03/28 01:34:26;;;;;;;34.30;15.23;;;9.50;99.90;;;;;;5034302;28;20052;-70
2021/03/28 01:37:42;;;;;;;27.10;16.42;;;9.40;99.90;;;;;;5032966;28;20036;-70
2021/03/28 01:41:12;;;;;;;30.90;16.80;;;9.30;99.90;;;;;;5033762;28;20036;-70
2021/03/28 01:44:51;;;;;;;29.02;17.65;;;9.30;99.90;;;;;;5034691;28;20048;-70
2021/03/28 01:48:07;;;;;;;30.13;16.90;;;9.20;99.90;;;;;;5034007;28;20041;-70
2021/03/28 01:51:43;;;;;;;25.55;16.95;;;9.20;99.90;;;;;;5033455;28;20044;-70
2021/03/28 01:55:09;;;;;;;27.25;16.90;;;9.20;99.90;;;;;;5033855;28;20056;-70
2021/03/28 01:58:23;;;;;;;24.40;17.23;;;9.20;99.90;;;;;;5033969;28;20053;-69
2021/03/28 02:01:55;;;;;;;27.77;17.90;;;9.20;99.90;;;;;;5033205;28;20061;-69
2021/03/28 02:05:24;;;;;;;29.67;16.50;;;9.20;99.90;;;;;;5033826;28;20049;-70
2021/03/28 02:08:51;;;;;;;28.98;17.67;;;9.10;99.90;;;;;;5033348;28;20750;-70
2021/03/28 02:12:13;;;;;;;31.27;18.38;;;9.10;99.90;;;;;;5020075;28;20052;-69
2021/03/28 02:15:35;;;;;;;25.05;17.25;;;9.10;99.90;;;;;;5032372;28;20044;-68
2021/03/28 02:18:48;;;;;;;25.77;17.27;;;9.10;99.90;;;;;;5033007;28;20045;-69
2021/03/28 02:22:25;;;;;;;26.73;16.85;;;9.00;99.90;;;;;;5031742;28;20040;-69
2021/03/28 02:25:53;;;;;;;29.88;17.45;;;8.80;99.90;;;;;;5031401;28;20484;-69
2021/03/28 02:29:28;;;;;;;27.65;17.33;;;8.80;99.90;;;;;;5030611;28;20053;-70
2021/03/28 02:32:41;;;;;;;32.60;19.08;;;8.70;99.90;;;;;;5032041;28;20040;-68
2021/03/28 02:35:57;;;;;;;29.15;17.65;;;8.60;99.90;;;;;;5021169;28;20057;-70
2021/03/28 02:39:26;;;;;;;29.23;18.75;;;8.70;99.90;;;;;;5020871;28;20044;-70
2021/03/28 02:42:34;;;;;;;27.77;18.40;;;8.70;99.90;;;;;;5030808;28;20045;-68
2021/03/28 02:45:46;;;;;;;26.00;18.00;;;8.70;99.90;;;;;;5022012;28;20048;-68
2021/03/28 02:49:27;;;;;;;31.77;17.77;;;8.70;99.90;;;;;;5032699;28;20056;-71
2021/03/28 02:52:53;;;;;;;22.30;14.47;;;8.60;99.90;;;;;;5025126;28;20045;-67
2021/03/28 02:56:00;;;;;;;35.20;21.25;;;8.50;99.90;;;;;;5025765;28;20287;-70
2021/03/28 02:59:37;;;;;;;30.88;18.63;;;8.50;99.90;;;;;;5024195;28;20044;-70
2021/03/28 03:02:47;;;;;;;45.53;24.05;;;8.50;99.90;;;;;;5025115;28;20049;-69
2021/03/28 03:06:12;;;;;;;26.77;18.92;;;8.50;99.90;;;;;;5031891;28;20053;-70
2021/03/28 03:09:43;;;;;;;35.03;20.30;;;8.40;99.90;;;;;;5032330;28;20044;-70
2021/03/28 03:13:15;;;;;;;29.35;20.75;;;8.50;99.90;;;;;;5031620;28;20048;-70
2021/03/28 03:16:27;;;;;;;38.05;21.55;;;8.40;99.90;;;;;;5024155;28;20040;-69
2021/03/28 03:20:05;;;;;;;37.43;22.80;;;8.40;99.90;;;;;;5032098;28;20036;-69
2021/03/28 03:23:18;;;;;;;35.47;22.67;;;8.50;99.90;;;;;;5023479;28;20283;-69
2021/03/28 03:26:44;;;;;;;34.55;22.23;;;8.50;99.90;;;;;;5023020;28;20056;-69
2021/03/28 03:30:04;;;;;;;32.97;21.45;;;8.50;99.90;;;;;;5032430;28;20487;-70
2021/03/28 03:33:23;;;;;;;34.38;21.15;;;8.60;99.90;;;;;;5031240;28;20121;-70
2021/03/28 03:37:03;;;;;;;38.90;20.77;;;8.60;99.90;;;;;;5030381;28;20044;-70
2021/03/28 03:40:31;;;;;;;36.75;20.73;;;8.70;99.90;;;;;;5024662;28;20053;-69
2021/03/28 03:43:38;;;;;;;31.08;19.27;;;8.80;99.90;;;;;;5025318;28;20056;-70
2021/03/28 03:47:18;;;;;;;33.50;20.92;;;8.80;99.90;;;;;;5030535;28;20069;-70
2021/03/28 03:50:34;;;;;;;27.67;18.13;;;8.80;99.90;;;;;;5031457;28;20052;-70
2021/03/28 03:53:57;;;;;;;30.02;19.02;;;8.90;99.90;;;;;;5030758;28;20388;-68
2021/03/28 03:57:09;;;;;;;32.65;18.73;;;9.00;99.90;;;;;;5030946;28;20056;-68
2021/03/28 04:00:25;;;;;;;27.95;17.42;;;9.10;99.90;;;;;;5031636;28;20060;-70
2021/03/28 04:03:38;;;;;;;32.28;17.63;;;9.20;99.90;;;;;;5030292;28;20055;-71
2021/03/28 04:06:48;;;;;;;35.50;17.50;;;9.30;99.90;;;;;;5016589;28;20045;-69
2021/03/28 04:10:13;;;;;;;26.95;17.08;;;9.40;99.90;;;;;;5031303;28;20037;-70
2021/03/28 04:13:23;;;;;;;23.70;15.00;;;9.50;99.90;;;;;;5030806;28;20483;-70
2021/03/28 04:16:47;;;;;;;20.73;13.95;;;9.60;99.90;;;;;;5030172;28;20052;-71
2021/03/28 04:20:16;;;;;;;17.00;11.93;;;9.60;99.90;;;;;;5031505;28;20048;-69
2021/03/28 04:23:39;;;;;;;14.98;10.98;;;9.70;99.90;;;;;;5030164;28;20044;-70
2021/03/28 04:27:24;;;;;;;14.50;11.35;;;9.70;99.90;;;;;;5030635;28;20060;-70
2021/03/28 04:30:37;;;;;;;20.50;13.10;;;9.60;99.90;;;;;;5017015;28;20032;-71
2021/03/28 04:34:17;;;;;;;21.40;13.45;;;9.70;99.90;;;;;;5030709;28;20033;-70
2021/03/28 04:37:58;;;;;;;23.83;13.65;;;9.70;99.90;;;;;;5015458;28;20040;-70
2021/03/28 04:41:20;;;;;;;17.67;10.85;;;9.70;99.90;;;;;;5027448;28;20360;-70
2021/03/28 04:44:25;;;;;;;13.52;9.90;;;9.70;99.90;;;;;;5019645;28;20048;-70
2021/03/28 04:47:38;;;;;;;18.75;10.07;;;9.70;99.90;;;;;;5030393;28;20044;-68
2021/03/28 04:50:42;;;;;;;16.35;9.65;;;9.70;99.90;;;;;;5030698;28;20108;-70
2021/03/28 04:53:59;;;;;;;15.38;8.93;;;9.70;99.90;;;;;;5031289;28;20049;-70
2021/03/28 04:57:03;;;;;;;15.20;9.63;;;9.70;99.90;;;;;;5030226;28;20044;-70
2021/03/28 05:00:30;;;;;;;17.60;9.88;;;9.70;99.90;;;;;;5031351;28;20056;-70
2021/03/28 05:03:53;;;;;;;15.63;9.40;;;9.70;99.90;;;;;;5030317;28;20036;-68
2021/03/28 05:07:39;;;;;;;13.52;8.43;;;9.60;99.90;;;;;;5029199;28;20052;-70
2021/03/28 05:11:09;;;;;;;14.73;8.57;;;9.60;99.90;;;;;;5030372;28;20483;-69
2021/03/28 05:14:44;;;;;;;16.38;9.15;;;9.50;99.90;;;;;;5022771;28;20787;-70
2021/03/28 05:18:19;;;;;;;14.43;8.50;;;9.60;99.90;;;;;;5030352;28;20049;-69
2021/03/28 05:21:43;;;;;;;10.57;7.78;;;9.50;99.90;;;;;;5026314;28;20049;-70
2021/03/28 05:25:02;;;;;;;16.42;8.60;;;9.60;99.90;;;;;;5029932;28;20056;-70
2021/03/28 05:28:25;;;;;;;18.48;8.52;;;9.60;99.90;;;;;;5030256;28;20045;-69
2021/03/28 05:32:13;;;;;;;16.83;10.80;;;9.60;99.90;;;;;;5029552;28;20395;-70
2021/03/28 05:35:38;;;;;;;20.45;9.30;;;9.60;99.90;;;;;;5029114;28;20036;-70
2021/03/28 05:38:58;;;;;;;16.35;9.68;;;9.60;99.90;;;;;;5029636;28;20537;-70
2021/03/28 05:42:17;;;;;;;16.15;9.70;;;9.60;99.90;;;;;;5029834;28;20040;-69
2021/03/28 05:45:47;;;;;;;18.67;10.73;;;9.70;99.90;;;;;;5028162;28;20052;-70
2021/03/28 05:49:15;;;;;;;16.67;10.02;;;9.80;99.90;;;;;;5030436;28;20044;-69
2021/03/28 05:52:48;;;;;;;16.67;10.07;;;9.90;99.90;;;;;;5023199;28;20052;-70
2021/03/28 05:56:26;;;;;;;15.07;9.93;;;10.10;99.90;;;;;;5028797;28;20048;-70
2021/03/28 06:00:09;;;;;;;14.68;9.43;;;10.30;99.90;;;;;;5029703;28;20052;-70
2021/03/28 06:03:22;;;;;;;18.08;8.70;;;10.50;99.90;;;;;;5033332;28;20044;-70
2021/03/28 06:07:01;;;;;;;15.63;10.95;;;10.80;99.90;;;;;;5031890;28;20039;-70
2021/03/28 06:10:43;;;;;;;22.30;9.48;;;13.00;99.90;;;;;;5031528;28;20040;-69
2021/03/28 06:14:26;;;;;;;15.35;7.65;;;16.20;99.90;;;;;;5030174;28;20053;-70
2021/03/28 06:18:08;;;;;;;16.60;6.72;;;19.40;99.90;;;;;;5030314;28;20044;-70
2021/03/28 06:21:25;;;;;;;13.52;6.70;;;21.60;99.90;;;;;;5029314;28;20036;-70
2021/03/28 06:25:03;;;;;;;13.85;5.95;;;23.10;99.90;;;;;;5028864;28;20040;-70
2021/03/28 06:28:22;;;;;;;11.43;5.47;;;24.40;98.80;;;;;;5030104;28;20048;-70
2021/03/28 06:31:52;;;;;;;16.75;6.63;;;25.10;97.20;;;;;;5028761;28;20037;-69
2021/03/28 06:35:10;;;;;;;11.23;6.03;;;25.10;96.40;;;;;;5030130;28;20040;-70
2021/03/28 06:38:32;;;;;;;11.07;6.28;;;25.60;95.00;;;;;;5030009;28;20044;-70
2021/03/28 06:41:55;;;;;;;13.27;6.43;;;25.60;94.20;;;;;;5030122;28;20052;-69
2021/03/28 06:45:20;;;;;;;10.10;5.60;;;25.30;92.90;;;;;;5027991;28;20048;-69
2021/03/28 06:48:55;;;;;;;13.48;6.65;;;24.80;93.70;;;;;;5031477;28;20040;-70
2021/03/28 06:52:14;;;;;;;15.88;8.48;;;24.60;93.20;;;;;;5028783;28;20120;-70
2021/03/28 06:55:41;;;;;;;17.92;7.53;;;24.40;92.60;;;;;;5028348;28;20036;-69
2021/03/28 06:59:30;;;;;;;13.52;7.38;;;24.90;92.70;;;;;;5030750;28;20060;-70
2021/03/28 07:03:01;;;;;;;17.20;6.35;;;22.90;92.70;;;;;;5045615;28;20431;-70
2021/03/28 07:06:17;;;;;;;11.98;5.80;;;23.70;93.30;;;;;;5040418;28;20054;-70
2021/03/28 07:09:55;;;;;;;18.30;7.28;;;24.70;92.10;;;;;;5029497;28;20032;-70
2021/03/28 07:13:38;;;;;;;16.30;5.90;;;24.70;92.30;;;;;;5015745;28;20044;-69
2021/03/28 07:17:07;;;;;;;12.13;5.05;;;24.50;92.10;;;;;;5028616;28;20554;-70
2021/03/28 07:20:26;;;;;;;7.28;4.85;;;24.10;92.10;;;;;;5031084;28;20060;-70
2021/03/28 07:24:21;;;;;;;10.32;5.40;;;23.30;92.40;;;;;;5029314;28;20057;-70
2021/03/28 07:28:04;;;;;;;14.10;5.95;;;23.10;93.00;;;;;;4999364;28;20048;-70
2021/03/28 07:31:56;;;;;;;9.95;5.68;;;22.20;94.20;;;;;;5010921;28;20052;-69
2021/03/28 07:35:24;;;;;;;13.48;7.78;;;21.20;95.30;;;;;;4993862;28;20057;-69
2021/03/28 07:38:56;;;;;;;14.57;6.35;;;20.70;95.20;;;;;;5019857;28;20064;-69
2021/03/28 07:42:45;;;;;;;11.43;5.32;;;20.10;95.90;;;;;;5023387;28;20053;-70
2021/03/28 07:46:23;;;;;;;11.65;6.30;;;22.30;94.50;;;;;;5017111;28;20040;-68
2021/03/28 07:49:33;;;;;;;11.77;7.20;;;19.80;96.70;;;;;;5022947;28;20041;-70
2021/03/28 07:53:26;;;;;;;18.20;7.53;;;20.10;97.00;;;;;;5023151;28;20049;-69
2021/03/28 07:56:42;;;;;;;16.40;7.53;;;22.80;94.50;;;;;;5019554;28;20048;-69
2021/03/28 08:00:15;;;;;;;11.73;6.07;;;24.50;92.20;;;;;;5023153;28;20392;-69
2021/03/28 08:03:29;;;;;;;11.88;7.20;;;24.70;91.30;;;;;;5029420;28;20483;-69
2021/03/28 08:06:51;;;;;;;10.70;6.45;;;22.90;92.50;;;;;;5025125;28;20056;-69
2021/03/28 08:10:19;;;;;;;11.85;6.32;;;24.10;92.20;;;;;;5022942;28;20045;-69
2021/03/28 08:14:01;;;;;;;9.52;5.60;;;21.50;93.70;;;;;;5026573;28;20041;-69
2021/03/28 08:17:43;;;;;;;11.70;5.65;;;20.80;93.40;;;;;;5033110;28;20048;-69
2021/03/28 08:20:53;;;;;;;11.73;6.57;;;23.40;93.00;;;;;;5027354;28;20492;-69
2021/03/28 08:24:35;;;;;;;11.48;6.32;;;22.20;93.20;;;;;;5026632;28;20040;-69
2021/03/28 08:28:08;;;;;;;8.38;5.03;;;24.50;91.50;;;;;;5020896;28;20378;-70
2021/03/28 08:31:32;;;;;;;10.23;5.38;;;22.40;93.00;;;;;;5027689;28;20392;-69
2021/03/28 08:35:04;;;;;;;13.85;5.47;;;23.10;92.30;;;;;;5018433;28;20052;-69
2021/03/28 08:38:27;;;;;;;9.20;4.82;;;23.20;92.00;;;;;;5012582;28;20745;-69
2021/03/28 08:41:45;;;;;;;12.63;4.65;;;26.90;88.60;;;;;;5027180;28;20066;-69
2021/03/28 08:45:26;;;;;;;12.38;4.72;;;27.70;84.40;;;;;;5026113;28;20052;-68
2021/03/28 08:48:46;;;;;;;6.78;3.38;;;23.40;87.40;;;;;;5015226;28;20052;-68
2021/03/28 08:52:10;;;;;;;8.25;4.30;;;22.70;89.70;;;;;;5024472;28;20408;-70
2021/03/28 08:55:24;;;;;;;9.70;4.10;;;24.90;88.50;;;;;;5025500;28;20064;-70
2021/03/28 08:58:52;;;;;;;6.50;3.72;;;28.70;81.60;;;;;;5024273;28;20068;-69
2021/03/28 09:02:05;;;;;;;6.05;2.00;;;29.50;76.10;;;;;;5021452;28;20056;-69
2021/03/28 09:05:17;;;;;;;8.65;3.40;;;32.10;67.30;;;;;;5018842;28;20044;-70
2021/03/28 09:08:23;;;;;;;8.48;3.67;;;27.70;67.60;;;;;;5018435;28;20040;-70
2021/03/28 09:11:43;;;;;;;7.10;2.58;;;29.50;68.40;;;;;;5022755;28;20048;-69
2021/03/28 09:15:06;;;;;;;7.18;3.20;;;30.00;67.00;;;;;;5004538;28;20384;-69
2021/03/28 09:18:16;;;;;;;6.15;3.22;;;31.00;64.30;;;;;;5022119;28;20132;-70
2021/03/28 09:21:30;;;;;;;10.60;3.78;;;31.50;62.80;;;;;;5021741;28;20045;-69
2021/03/28 09:25:16;;;;;;;6.60;3.17;;;31.10;61.40;;;;;;5019359;28;20040;-69
2021/03/28 09:28:55;;;;;;;6.15;3.30;;;31.80;61.30;;;;;;4992301;28;20034;-69
2021/03/28 09:32:38;;;;;;;8.48;3.25;;;33.10;58.20;;;;;;5007998;28;20048;-69
2021/03/28 09:36:01;;;;;;;5.68;2.80;;;33.70;57.80;;;;;;5029054;28;20503;-69
2021/03/28 09:39:38;;;;;;;4.85;2.88;;;35.50;54.80;;;;;;5031807;28;20568;-69
2021/03/28 09:43:20;;;;;;;6.32;2.80;;;35.60;53.20;;;;;;5031767;28;20049;-70
2021/03/28 09:46:34;;;;;;;6.75;2.95;;;36.70;50.80;;;;;;5030678;28;20036;-69
2021/03/28 09:49:51;;;;;;;8.55;2.95;;;37.40;50.30;;;;;;5030631;28;20040;-69
2021/03/28 09:53:08;;;;;;;4.40;2.33;;;34.70;50.00;;;;;;5031646;28;20045;-69
2021/03/28 09:56:40;;;;;;;6.55;2.70;;;32.60;50.80;;;;;;5031619;28;20048;-69
2021/03/28 10:00:29;;;;;;;8.18;2.60;;;34.40;51.40;;;;;;5031335;28;20048;-69
2021/03/28 10:04:04;;;;;;;7.45;2.78;;;35.20;50.50;;;;;;5032353;28;20368;-68
2021/03/28 10:07:09;;;;;;;12.95;2.83;;;37.00;50.00;;;;;;5028991;28;20048;-68
2021/03/28 10:10:22;;;;;;;11.07;3.05;;;35.00;47.10;;;;;;5032299;28;20044;-68
2021/03/28 10:14:00;;;;;;;7.18;2.90;;;34.90;49.60;;;;;;5031876;28;20041;-69
2021/03/28 10:17:38;;;;;;;6.88;2.33;;;35.90;48.30;;;;;;5015724;28;20036;-68
2021/03/28 10:20:52;;;;;;;4.95;2.65;;;34.40;50.00;;;;;;5027909;28;20628;-68
2021/03/28 10:24:03;;;;;;;6.18;2.42;;;36.90;48.50;;;;;;5032488;28;20041;-68
2021/03/28 10:27:38;;;;;;;4.10;2.50;;;33.10;48.30;;;;;;5030445;28;20135;-68
2021/03/28 10:31:17;;;;;;;5.47;2.60;;;31.20;48.70;;;;;;5032183;28;20036;-67
2021/03/28 10:34:43;;;;;;;7.47;2.65;;;32.40;51.80;;;;;;5028302;28;20056;-68
2021/03/28 10:38:12;;;;;;;6.53;2.20;;;34.40;51.10;;;;;;5029788;28;20052;-67
2021/03/28 10:41:22;;;;;;;7.18;2.88;;;37.00;48.90;;;;;;5030406;28;20052;-67
2021/03/28 10:44:49;;;;;;;4.63;2.50;;;38.40;46.30;;;;;;5018056;28;20053;-67
2021/03/28 10:48:18;;;;;;;5.68;2.28;;;36.10;46.40;;;;;;5031351;28;20052;-68
2021/03/28 10:51:43;;;;;;;5.00;2.15;;;34.80;46.90;;;;;;5029297;28;20095;-68
2021/03/28 10:55:41;;;;;;;6.70;2.33;;;35.80;46.00;;;;;;5020506;28;20044;-68
2021/03/28 10:59:12;;;;;;;3.50;1.80;;;35.40;45.20;;;;;;5027198;28;20057;-68
2021/03/28 11:02:31;;;;;;;5.97;2.17;;;37.10;44.80;;;;;;5020878;28;20172;-68
2021/03/28 11:05:54;;;;;;;4.03;2.10;;;38.20;44.50;;;;;;5023530;28;20068;-68
2021/03/28 11:09:22;;;;;;;6.57;2.38;;;39.20;42.90;;;;;;5039206;28;21492;-68
2021/03/28 11:12:35;;;;;;;7.15;2.83;;;35.50;44.00;;;;;;5028380;28;20037;-68
2021/03/28 11:15:40;;;;;;;4.53;1.77;;;36.10;44.00;;;;;;5024569;28;20041;-68
2021/03/28 11:19:28;;;;;;;5.22;2.08;;;37.70;42.80;;;;;;5024551;28;20044;-67
2021/03/28 11:23:01;;;;;;;5.18;1.83;;;37.60;42.20;;;;;;5028098;28;20492;-68
2021/03/28 11:26:25;;;;;;;4.78;2.35;;;38.90;42.20;;;;;;5023051;28;20788;-68
2021/03/28 11:29:32;;;;;;;4.68;2.08;;;40.20;41.60;;;;;;5025753;28;20040;-67
2021/03/28 11:32:52;;;;;;;6.43;2.40;;;41.00;40.70;;;;;;5029554;28;20044;-68
2021/03/28 11:36:02;;;;;;;7.22;2.05;;;40.90;39.70;;;;;;5022391;28;20041;-67
2021/03/28 11:39:15;;;;;;;4.32;1.60;;;39.40;40.60;;;;;;5027831;28;20045;-67
2021/03/28 11:42:23;;;;;;;4.97;1.90;;;39.70;40.40;;;;;;5028411;28;20049;-67
2021/03/28 11:45:31;;;;;;;10.90;2.78;;;36.60;40.80;;;;;;5027377;28;20051;-66
2021/03/28 11:48:44;;;;;;;9.85;3.10;;;32.40;45.00;;;;;;5029952;28;20052;-66
2021/03/28 11:51:51;;;;;;;4.28;2.10;;;33.00;43.20;;;;;;5024765;28;20049;-67
2021/03/28 11:55:10;;;;;;;5.40;2.15;;;32.90;44.90;;;;;;5031471;28;20400;-68
2021/03/28 11:58:15;;;;;;;5.22;2.40;;;34.40;44.00;;;;;;5024470;28;20500;-68
2021/03/28 12:01:55;;;;;;;7.30;2.40;;;33.50;42.60;;;;;;5030656;28;20121;-68
2021/03/28 12:05:00;;;;;;;6.70;2.10;;;32.00;44.70;;;;;;5021209;28;20041;-67
2021/03/28 12:08:09;;;;;;;4.60;2.15;;;33.60;44.80;;;;;;5023488;28;20052;-68
2021/03/28 12:11:34;;;;;;;5.60;2.00;;;35.70;42.40;;;;;;5029542;28;20036;-68
2021/03/28 12:14:39;;;;;;;6.45;2.08;;;37.30;41.20;;;;;;5027566;28;20055;-68
2021/03/28 12:17:43;;;;;;;8.25;2.97;;;35.60;41.90;;;;;;5024402;28;20049;-68
2021/03/28 12:21:02;;;;;;;25.70;15.98;;;37.50;42.30;;;;;;5025656;28;20052;-68
2021/03/28 12:24:10;;;;;;;4.75;1.73;;;38.80;41.70;;;;;;5030374;28;20044;-68
2021/03/28 12:27:48;;;;;;;6.32;1.92;;;38.80;40.60;;;;;;5024683;28;20385;-68
2021/03/28 12:30:53;;;;;;;8.10;2.20;;;38.10;40.30;;;;;;5029153;28;20048;-69
2021/03/28 12:34:22;;;;;;;5.38;1.88;;;37.10;40.90;;;;;;5029282;28;20048;-68
2021/03/28 12:37:27;;;;;;;6.45;2.28;;;38.10;41.20;;;;;;5027924;28;20036;-69
2021/03/28 12:40:36;;;;;;;6.07;1.85;;;38.60;39.60;;;;;;5029786;28;20413;-68
2021/03/28 12:43:44;;;;;;;9.70;2.63;;;37.00;40.00;;;;;;5030591;28;20056;-68
2021/03/28 12:46:55;;;;;;;4.43;2.00;;;36.40;41.60;;;;;;5023216;28;20049;-68
2021/03/28 12:50:06;;;;;;;7.28;2.97;;;37.00;40.80;;;;;;5029987;28;20076;-68
2021/03/28 12:53:21;;;;;;;6.18;1.88;;;36.70;40.70;;;;;;5028464;28;20040;-68
2021/03/28 12:56:30;;;;;;;6.70;2.42;;;37.40;40.70;;;;;;5029462;28;20033;-67
2021/03/28 12:59:41;;;;;;;5.88;2.30;;;36.80;39.20;;;;;;5029805;28;20056;-68
2021/03/28 13:02:47;;;;;;;7.32;2.10;;;34.60;41.70;;;;;;5027604;28;20048;-67
2021/03/28 13:06:11;;;;;;;3.90;2.10;;;35.30;41.60;;;;;;5026153;28;20040;-68
2021/03/28 13:09:16;;;;;;;6.32;2.17;;;35.60;41.00;;;;;;5026602;28;20389;-68
2021/03/28 13:12:24;;;;;;;5.13;2.28;;;36.40;39.10;;;;;;5034406;28;20053;-67
2021/03/28 13:15:53;;;;;;;6.60;2.42;;;35.40;40.40;;;;;;5032806;28;20044;-67
2021/03/28 13:18:59;;;;;;;9.38;2.60;;;30.30;41.90;;;;;;5026150;28;20049;-68
2021/03/28 13:22:36;;;;;;;10.50;2.28;;;32.00;44.20;;;;;;5022925;28;20056;-68
2021/03/28 13:25:40;;;;;;;6.93;2.38;;;34.20;41.50;;;;;;5025089;28;20048;-68
2021/03/28 13:28:53;;;;;;;6.68;2.45;;;35.00;40.90;;;;;;5033841;28;20044;-68
2021/03/28 13:32:00;;;;;;;6.22;2.38;;;34.30;40.60;;;;;;5033085;28;20395;-69
2021/03/28 13:35:31;;;;;;;7.20;2.53;;;35.10;42.00;;;;;;5033891;28;20040;-67
2021/03/28 13:38:36;;;;;;;3.90;2.10;;;35.70;41.30;;;;;;5031946;28;20045;-68
2021/03/28 13:41:46;;;;;;;8.40;2.55;;;36.20;40.20;;;;;;5034034;28;20040;-68
2021/03/28 13:45:20;;;;;;;5.75;2.30;;;36.80;39.90;;;;;;5034529;28;20056;-68
2021/03/28 13:48:26;;;;;;;5.75;2.28;;;37.30;38.50;;;;;;5027467;28;20036;-68
2021/03/28 13:51:31;;;;;;;7.05;2.42;;;37.30;39.50;;;;;;5031860;28;20381;-68
2021/03/28 13:54:35;;;;;;;7.72;2.58;;;36.80;39.50;;;;;;5033320;28;20053;-68
2021/03/28 13:57:43;;;;;;;5.20;2.20;;;36.80;39.20;;;;;;5033009;28;20052;-68
2021/03/28 14:01:08;;;;;;;6.40;2.10;;;36.70;38.20;;;;;;5027187;28;20562;-68
2021/03/28 14:04:36;;;;;;;3.92;2.20;;;35.30;38.80;;;;;;5027698;28;20041;-67
2021/03/28 14:07:41;;;;;;;10.43;2.97;;;29.90;42.80;;;;;;5026030;28;20044;-67
2021/03/28 14:10:49;;;;;;;6.93;2.53;;;30.10;43.40;;;;;;5029426;28;20048;-68
2021/03/28 14:14:06;;;;;;;7.40;3.15;;;27.70;44.70;;;;;;5031956;28;20052;-68
2021/03/28 14:17:26;;;;;;;6.63;2.50;;;29.30;46.00;;;;;;5030951;28;20045;-68
2021/03/28 14:20:38;;;;;;;6.55;2.97;;;30.00;45.50;;;;;;5030326;28;20041;-68
2021/03/28 14:23:57;;;;;;;11.23;3.35;;;29.90;45.10;;;;;;5019617;28;20040;-68
2021/03/28 14:27:08;;;;;;;9.05;3.03;;;30.10;45.10;;;;;;5030862;28;20044;-68
2021/03/28 14:30:17;;;;;;;9.27;3.15;;;30.10;45.60;;;;;;5030708;28;20101;-67
2021/03/28 14:33:29;;;;;;;5.57;2.80;;;29.70;46.00;;;;;;5031778;28;20052;-68
2021/03/28 14:36:50;;;;;;;;;;;29.20;46.70;;;;;;5029230;28;20044;-68
2021/03/28 14:40:18;;;;;;;7.38;2.70;;;28.90;46.60;;;;;;5030425;28;20584;-68
2021/03/28 14:43:30;;;;;;;10.98;3.50;;;26.50;47.30;;;;;;5031670;28;20049;-67
2021/03/28 14:46:50;;;;;;;6.25;2.75;;;25.70;50.50;;;;;;5027892;28;20044;-68
2021/03/28 14:50:25;;;;;;;9.13;3.30;;;25.60;49.50;;;;;;5024556;28;20044;-68
2021/03/28 14:53:43;;;;;;;9.25;3.08;;;25.70;51.30;;;;;;5030439;28;20044;-69
2021/03/28 14:57:02;;;;;;;5.75;2.70;;;25.70;51.20;;;;;;5028389;28;20037;-68
2021/03/28 15:00:30;;;;;;;5.18;2.80;;;25.60;51.00;;;;;;5027707;28;20068;-68
2021/03/28 15:04:04;;;;;;;6.07;3.08;;;25.60;51.00;;;;;;5029601;28;20048;-68
2021/03/28 15:07:39;;;;;;;12.20;2.72;;;25.70;50.20;;;;;;5026146;28;20064;-68
2021/03/28 15:10:53;;;;;;;7.35;2.90;;;25.40;50.50;;;;;;5024853;28;20052;-69
2021/03/28 15:14:06;;;;;;;9.88;2.80;;;25.20;50.30;;;;;;5028700;28;20377;-69
2021/03/28 15:17:53;;;;;;;7.13;3.10;;;25.10;49.80;;;;;;5028813;28;20392;-69
2021/03/28 15:21:03;;;;;;;16.13;3.25;;;24.80;51.20;;;;;;5028146;28;20521;-68
2021/03/28 15:24:27;;;;;;;8.82;3.28;;;24.40;51.50;;;;;;5028256;28;20048;-68
2021/03/28 15:27:44;;;;;;;9.20;3.20;;;23.00;51.10;;;;;;5029616;28;20037;-69
2021/03/28 15:31:04;;;;;;;8.75;2.55;;;23.20;52.70;;;;;;5030102;28;20040;-70
2021/03/28 15:34:23;;;;;;;10.88;3.10;;;23.40;52.90;;;;;;5021767;28;20048;-69
2021/03/28 15:37:40;;;;;;;8.57;3.20;;;23.30;54.20;;;;;;5027870;28;20044;-68
2021/03/28 15:40:51;;;;;;;9.88;3.03;;;23.10;54.30;;;;;;5038626;28;20522;-69
2021/03/28 15:44:33;;;;;;;8.55;2.92;;;22.90;53.80;;;;;;5029034;28;20053;-69
2021/03/28 15:48:00;;;;;;;5.18;2.65;;;23.00;53.60;;;;;;5026128;28;20053;-69
2021/03/28 15:51:11;;;;;;;7.60;3.08;;;22.60;55.40;;;;;;5028163;28;20064;-70
2021/03/28 15:54:58;;;;;;;11.35;3.28;;;22.60;55.50;;;;;;5030473;28;20508;-69
2021/03/28 15:58:09;;;;;;;7.25;2.90;;;22.50;55.50;;;;;;5020055;28;20032;-68
2021/03/28 16:01:33;;;;;;;10.55;3.17;;;22.40;55.20;;;;;;5027197;28;20056;-69
2021/03/28 16:04:53;;;;;;;8.77;3.22;;;22.20;55.10;;;;;;5024621;28;20596;-68
2021/03/28 16:08:15;;;;;;;8.95;2.67;;;21.90;55.00;;;;;;5017257;28;20648;-69
2021/03/28 16:11:46;;;;;;;9.23;3.20;;;21.60;55.10;;;;;;5025317;28;20542;-68
2021/03/28 16:14:59;;;;;;;8.33;3.67;;;21.50;55.20;;;;;;5025841;28;20063;-68
2021/03/28 16:18:28;;;;;;;10.68;3.38;;;20.90;55.40;;;;;;5020322;28;20048;-68
2021/03/28 16:22:22;;;;;;;9.07;2.92;;;20.60;57.00;;;;;;5028584;28;20044;-68
2021/03/28 16:26:05;;;;;;;9.43;3.30;;;20.60;57.00;;;;;;5027854;28;20479;-68
2021/03/28 16:29:33;;;;;;;9.18;2.83;;;20.30;56.30;;;;;;5027311;28;20037;-69
2021/03/28 16:33:00;;;;;;;7.07;3.20;;;20.40;57.00;;;;;;5027512;28;20044;-68
2021/03/28 16:36:16;;;;;;;6.78;3.40;;;20.30;57.10;;;;;;5027174;28;20040;-68
2021/03/28 16:39:24;;;;;;;11.45;3.47;;;20.40;57.40;;;;;;5029067;28;20048;-69
2021/03/28 16:43:01;;;;;;;7.90;3.47;;;20.30;58.40;;;;;;5016903;28;20044;-69
2021/03/28 16:46:16;;;;;;;8.70;3.10;;;20.10;59.10;;;;;;5018516;28;20060;-68
2021/03/28 16:49:59;;;;;;;11.20;3.67;;;20.00;59.10;;;;;;5023004;28;20048;-69
2021/03/28 16:53:15;;;;;;;10.60;3.25;;;19.80;58.90;;;;;;5013691;28;20040;-69
2021/03/28 16:56:36;;;;;;;9.68;3.63;;;19.70;58.50;;;;;;5022759;28;20048;-69
2021/03/28 16:59:52;;;;;;;9.63;3.00;;;19.50;59.60;;;;;;5023423;28;20060;-69
2021/03/28 17:03:16;;;;;;;9.75;3.28;;;19.40;59.70;;;;;;5019232;28;20060;-69
2021/03/28 17:06:23;;;;;;;8.23;3.15;;;19.20;60.00;;;;;;5020937;28;20080;-69
2021/03/28 17:09:35;;;;;;;7.43;2.75;;;19.10;60.20;;;;;;5022565;28;20056;-69
2021/03/28 17:12:45;;;;;;;11.60;3.28;;;18.90;61.10;;;;;;5019859;28;20052;-68
2021/03/28 17:15:50;;;;;;;8.05;3.53;;;18.80;61.10;;;;;;5022013;28;20037;-69
2021/03/28 17:19:15;;;;;;;8.82;3.53;;;18.60;61.30;;;;;;5023648;28;20044;-69
2021/03/28 17:22:40;;;;;;;7.45;3.28;;;18.40;61.90;;;;;;5016304;28;20052;-69
2021/03/28 17:26:08;;;;;;;13.73;4.25;;;18.20;61.90;;;;;;5019622;28;20041;-68